createdAt,value
2022-10-29T02:13:27.246Z,16.83
2022-10-29T02:15:57.275Z,21.85
2022-10-29T02:18:25.284Z,27.65
2022-10-29T02:20:53.022Z,18.92
2022-10-29T02:23:20.680Z,23.90
2022-10-29T02:25:48.347Z,33.83
2022-10-29T02:28:16.173Z,22.88
2022-10-29T02:30:43.807Z,25.48
2022-10-29T02:33:11.531Z,22.48
2022-10-29T02:35:39.190Z,25.05
2022-10-29T02:38:06.880Z,18.77
2022-10-29T02:40:34.573Z,22.65
2022-10-29T02:43:02.252Z,20.73
2022-10-29T02:45:29.897Z,22.65
2022-10-29T02:47:57.833Z,19.73
2022-10-29T02:50:25.960Z,24.00
2022-10-29T02:52:53.622Z,21.90
2022-10-29T02:55:21.335Z,19.52
2022-10-29T02:57:49.105Z,21.80
2022-10-29T03:00:17.440Z,22.92
2022-10-29T03:02:45.448Z,27.70
2022-10-29T03:05:13.228Z,24.58
2022-10-29T03:07:40.868Z,27.35
2022-10-29T03:10:09.079Z,28.73
2022-10-29T03:12:36.810Z,24.30
2022-10-29T03:15:04.915Z,21.95
2022-10-29T03:17:32.535Z,22.50
2022-10-29T03:20:00.275Z,23.58
2022-10-29T03:22:28.108Z,28.17
2022-10-29T03:24:55.756Z,27.40
2022-10-29T03:27:23.541Z,37.83
2022-10-29T03:29:51.288Z,34.40
2022-10-29T03:32:18.963Z,34.97
2022-10-29T03:34:46.701Z,22.73
2022-10-29T03:37:14.499Z,21.00
2022-10-29T03:39:42.203Z,19.27
2022-10-29T03:42:09.890Z,22.10
2022-10-29T03:44:37.639Z,26.20
2022-10-29T03:47:08.177Z,24.55
2022-10-29T03:49:35.778Z,22.48
2022-10-29T03:52:03.557Z,20.98
2022-10-29T03:54:31.260Z,26.63
2022-10-29T03:56:58.919Z,26.27
2022-10-29T03:59:26.530Z,24.08
2022-10-29T04:01:54.381Z,21.58
2022-10-29T04:04:22.184Z,21.10
2022-10-29T04:06:49.908Z,21.70
2022-10-29T04:09:17.629Z,19.98
2022-10-29T04:11:45.321Z,22.25
2022-10-29T04:14:13.133Z,20.95
2022-10-29T04:16:40.838Z,21.88
2022-10-29T04:19:08.623Z,22.75
2022-10-29T04:29:59.315Z,19.23
2022-10-29T04:32:27.957Z,20.05
2022-10-29T04:34:55.571Z,23.17
2022-10-29T04:37:23.748Z,21.90
2022-10-29T04:39:52.661Z,27.25
2022-10-29T04:42:20.609Z,25.65
2022-10-29T04:44:48.251Z,22.08
2022-10-29T04:47:16.035Z,30.70
2022-10-29T04:49:43.731Z,29.40
2022-10-29T04:52:11.370Z,27.50
2022-10-29T04:54:39.107Z,22.05
2022-10-29T04:57:06.920Z,23.25
2022-10-29T04:59:34.675Z,22.90
2022-10-29T05:02:02.378Z,23.63
2022-10-29T05:04:30.191Z,25.48
2022-10-29T05:06:57.910Z,33.63
2022-10-29T05:09:25.612Z,42.95
2022-10-29T05:11:53.415Z,28.98
2022-10-29T05:14:21.064Z,23.45
2022-10-29T05:16:48.766Z,28.65
2022-10-29T05:19:16.498Z,25.55
2022-10-29T05:21:44.323Z,25.67
2022-10-29T05:24:11.924Z,23.13
2022-10-29T05:26:39.651Z,24.83
2022-10-29T05:29:07.369Z,26.92
2022-10-29T05:31:35.035Z,28.17
2022-10-29T05:34:02.786Z,26.83
2022-10-29T05:36:30.585Z,27.05
2022-10-29T05:38:58.520Z,26.08
2022-10-29T05:41:26.170Z,29.52
2022-10-29T05:43:53.840Z,29.02
2022-10-29T05:46:21.539Z,21.52
2022-10-29T05:48:49.371Z,28.88
2022-10-29T05:51:17.099Z,34.08
2022-10-29T05:53:44.851Z,37.13
2022-10-29T05:56:12.492Z,31.33
2022-10-29T05:58:40.247Z,25.10
2022-10-29T06:01:10.352Z,25.60
2022-10-29T06:03:38.634Z,33.30
2022-10-29T06:06:06.740Z,31.17
2022-10-29T06:08:34.514Z,30.30
2022-10-29T06:11:03.434Z,30.73
2022-10-29T06:13:31.259Z,39.10
2022-10-29T06:16:00.909Z,28.58
2022-10-29T06:18:29.187Z,26.52
2022-10-29T06:21:00.787Z,39.47
2022-10-29T06:23:29.389Z,28.30
2022-10-29T06:26:01.120Z,28.50
2022-10-29T06:28:34.510Z,24.63
2022-10-29T06:31:03.206Z,32.97
2022-10-29T06:33:30.857Z,31.88
2022-10-29T06:36:00.663Z,30.77
2022-10-29T06:38:28.538Z,27.77
2022-10-29T06:40:56.270Z,27.77
2022-10-29T06:43:23.969Z,28.23
2022-10-29T06:45:53.015Z,31.48
2022-10-29T06:48:22.524Z,29.92
2022-10-29T06:50:51.704Z,33.40
2022-10-29T06:53:20.078Z,28.40
2022-10-29T06:55:47.831Z,29.20
2022-10-29T06:58:19.680Z,35.42
2022-10-29T07:00:48.743Z,27.00
2022-10-29T07:03:19.806Z,26.17
2022-10-29T07:05:47.890Z,25.00
2022-10-29T07:08:15.609Z,19.20
2022-10-29T07:10:43.320Z,23.48
2022-10-29T07:13:11.152Z,18.80
2022-10-29T07:15:38.859Z,21.20
2022-10-29T07:18:08.949Z,25.77
2022-10-29T07:20:41.055Z,27.02
2022-10-29T07:23:10.286Z,26.58
2022-10-29T07:25:38.904Z,24.60
2022-10-29T07:28:23.171Z,24.55
2022-10-29T07:30:52.317Z,26.20
2022-10-29T07:33:20.153Z,26.75
2022-10-29T07:35:47.929Z,23.88
2022-10-29T07:38:15.606Z,30.55
2022-10-29T07:40:50.958Z,23.55
2022-10-29T07:43:21.816Z,27.83
2022-10-29T07:45:52.579Z,27.98
2022-10-29T07:48:21.566Z,23.13
2022-10-29T07:50:49.475Z,22.65
2022-10-29T07:53:17.452Z,20.85
2022-10-29T07:55:51.600Z,23.30
2022-10-29T07:58:19.396Z,22.90
2022-10-29T08:00:47.316Z,24.13
2022-10-29T08:03:15.106Z,20.05
2022-10-29T08:05:43.225Z,25.00
2022-10-29T08:08:11.134Z,25.73
2022-10-29T08:10:39.291Z,26.88
2022-10-29T08:13:07.654Z,23.75
2022-10-29T08:15:35.815Z,24.98
2022-10-29T08:18:09.824Z,30.60
2022-10-29T08:20:37.595Z,27.70
2022-10-29T08:23:05.274Z,20.75
2022-10-29T08:25:33.017Z,22.05
2022-10-29T08:28:05.702Z,22.67
2022-10-29T08:30:34.600Z,23.30
2022-10-29T08:33:11.898Z,19.80
2022-10-29T08:35:39.600Z,18.73
2022-10-29T08:38:07.419Z,16.23
2022-10-29T08:41:13.131Z,15.85
2022-10-29T08:44:18.080Z,18.65
2022-10-29T08:47:21.282Z,21.83
2022-10-29T08:50:30.278Z,21.75
2022-10-29T08:53:22.420Z,20.48
2022-10-29T08:55:47.201Z,20.75
2022-10-29T08:58:38.751Z,19.88
2022-10-29T09:01:12.237Z,16.85
2022-10-29T09:03:40.212Z,16.40
2022-10-29T09:06:44.322Z,17.35
2022-10-29T09:09:36.543Z,19.30
2022-10-29T09:12:34.250Z,19.02
2022-10-29T09:15:19.308Z,17.83
2022-10-29T09:18:34.599Z,17.42
2022-10-29T09:21:33.182Z,17.85
2022-10-29T09:24:08.936Z,21.25
2022-10-29T09:27:08.076Z,19.05
2022-10-29T09:30:16.722Z,20.95
2022-10-29T09:33:12.079Z,22.00
2022-10-29T09:35:45.609Z,21.77
2022-10-29T09:38:24.318Z,20.23
2022-10-29T09:40:52.041Z,19.80
2022-10-29T09:43:34.773Z,25.45
2022-10-29T09:46:19.374Z,25.58
2022-10-29T09:49:08.685Z,27.58
2022-10-29T09:52:21.064Z,19.25
2022-10-29T09:54:52.274Z,15.43
2022-10-29T09:57:25.034Z,16.70
2022-10-29T10:00:03.988Z,15.73
2022-10-29T10:02:49.450Z,12.10
2022-10-29T10:05:27.547Z,16.88
2022-10-29T10:08:11.608Z,16.25
2022-10-29T10:11:00.348Z,10.23
2022-10-29T10:13:31.417Z,11.77
2022-10-29T10:16:06.172Z,12.00
2022-10-29T10:18:33.927Z,13.85
2022-10-29T10:21:23.810Z,13.57
2022-10-29T10:23:54.111Z,11.52
2022-10-29T10:26:34.902Z,12.82
2022-10-29T10:29:19.855Z,9.68
2022-10-29T10:31:49.911Z,15.38
2022-10-29T10:37:03.734Z,14.35
2022-10-29T10:39:43.883Z,10.07
2022-10-29T10:42:39.577Z,8.38
2022-10-29T10:45:25.582Z,7.65
2022-10-29T10:47:59.271Z,7.95
2022-10-29T10:50:33.197Z,7.20
2022-10-29T10:53:16.545Z,7.47
2022-10-29T10:55:59.846Z,9.48
2022-10-29T10:58:37.814Z,7.82
2022-10-29T11:01:24.521Z,7.35
2022-10-29T11:04:37.355Z,6.75
2022-10-29T11:07:12.805Z,5.82
2022-10-29T11:09:48.970Z,6.32
2022-10-29T11:13:06.334Z,9.15
2022-10-29T11:15:45.542Z,8.13
2022-10-29T11:18:35.112Z,6.05
2022-10-29T11:24:00.290Z,7.38
2022-10-29T11:29:14.786Z,7.32
2022-10-29T11:32:17.846Z,5.65
2022-10-29T11:35:13.376Z,6.50
2022-10-29T11:37:49.493Z,6.85
2022-10-29T11:40:29.910Z,6.07
2022-10-29T11:42:57.566Z,5.68
2022-10-29T11:45:53.675Z,7.55
2022-10-29T11:48:42.664Z,7.05
2022-10-29T11:51:35.770Z,10.05
2022-10-29T11:54:37.552Z,9.13
2022-10-29T11:57:20.428Z,20.58
2022-10-29T12:00:05.918Z,9.65
2022-10-29T12:02:48.096Z,8.48
2022-10-29T12:05:30.684Z,10.18
2022-10-29T12:08:20.685Z,9.32
2022-10-29T12:11:10.580Z,10.80
2022-10-29T12:14:20.585Z,13.82
2022-10-29T12:17:23.736Z,13.25
2022-10-29T12:20:02.879Z,17.17
2022-10-29T12:23:04.918Z,15.55
2022-10-29T12:26:06.213Z,14.82
2022-10-29T12:29:14.455Z,13.55
2022-10-29T12:31:51.014Z,12.75
2022-10-29T12:37:29.536Z,15.63
2022-10-29T12:40:06.568Z,14.45
2022-10-29T12:42:35.413Z,13.02
2022-10-29T12:45:24.869Z,11.63
2022-10-29T12:51:08.739Z,13.55
2022-10-29T12:53:52.774Z,17.45
2022-10-29T12:56:22.926Z,16.27
2022-10-29T12:59:18.558Z,10.27
2022-10-29T13:02:10.621Z,13.55
2022-10-29T13:04:34.847Z,12.55
2022-10-29T13:10:21.906Z,34.70
2022-10-29T13:12:55.624Z,33.45
2022-10-29T13:15:32.282Z,27.60
2022-10-29T13:18:18.210Z,84.30
2022-10-29T13:20:54.223Z,12.00
2022-10-29T13:23:31.264Z,18.65
2022-10-29T13:26:00.722Z,61.05
2022-10-29T13:28:28.319Z,50.92
2022-10-29T13:31:05.058Z,38.90
2022-10-29T13:33:32.609Z,25.08
2022-10-29T13:36:21.195Z,32.55
2022-10-29T13:39:04.603Z,32.90
2022-10-29T13:41:43.425Z,24.27
2022-10-29T13:44:19.495Z,13.10
2022-10-29T13:46:49.634Z,27.70
2022-10-29T13:49:40.475Z,12.43
2022-10-29T13:52:19.923Z,9.20
2022-10-29T13:54:59.184Z,12.38
2022-10-29T13:57:40.617Z,11.02
2022-10-29T14:00:11.180Z,15.50
2022-10-29T14:03:03.095Z,13.13
2022-10-29T14:05:44.774Z,17.90
2022-10-29T14:08:47.837Z,16.50
2022-10-29T14:11:19.473Z,19.27
2022-10-29T14:13:51.810Z,20.30
2022-10-29T14:16:29.300Z,18.02
2022-10-29T14:18:57.278Z,22.85
2022-10-29T14:21:36.851Z,23.02
2022-10-29T14:24:10.467Z,26.00
2022-10-29T14:26:44.901Z,22.35
2022-10-29T14:29:26.185Z,28.05
2022-10-29T14:32:18.678Z,24.30
2022-10-29T14:34:50.615Z,31.45
2022-10-29T14:37:28.560Z,29.40
2022-10-29T14:40:02.065Z,27.98
2022-10-29T14:42:45.155Z,25.13
2022-10-29T14:45:28.611Z,44.45
2022-10-29T14:48:01.398Z,37.42
2022-10-29T14:50:31.343Z,32.38
2022-10-29T14:53:07.531Z,36.30
2022-10-29T14:55:42.157Z,86.13
2022-10-29T14:58:29.786Z,47.17
2022-10-29T15:01:02.478Z,28.75
2022-10-29T15:03:34.388Z,26.50
2022-10-29T15:06:26.092Z,21.98
2022-10-29T15:09:07.550Z,32.60
2022-10-29T15:11:42.547Z,29.33
2022-10-29T15:14:45.820Z,25.67
2022-10-29T15:17:22.078Z,26.70
2022-10-29T15:20:00.671Z,25.20
2022-10-29T15:22:41.888Z,33.38
2022-10-29T15:25:40.465Z,48.35
2022-10-29T15:28:24.715Z,44.97
2022-10-29T15:30:52.984Z,41.63
2022-10-29T15:33:29.939Z,58.42
2022-10-29T15:36:02.689Z,53.30
2022-10-29T15:38:34.296Z,53.50
2022-10-29T15:41:20.138Z,44.60
2022-10-29T15:43:54.919Z,27.83
2022-10-29T15:46:29.682Z,24.17
2022-10-29T15:48:57.637Z,28.52
2022-10-29T15:51:31.350Z,29.80
2022-10-29T15:54:03.164Z,32.17
2022-10-29T15:56:31.993Z,30.15
2022-10-29T15:59:00.683Z,24.98
2022-10-29T16:01:29.990Z,23.13
2022-10-29T16:03:57.973Z,26.88
2022-10-29T16:06:25.841Z,34.30
2022-10-29T16:08:56.925Z,55.47
2022-10-29T16:11:25.466Z,165.98
2022-10-29T16:13:55.048Z,129.68
2022-10-29T16:16:25.527Z,91.55
2022-10-29T16:18:53.564Z,84.40
2022-10-29T16:21:26.429Z,95.07
2022-10-29T16:23:54.532Z,70.72
2022-10-29T16:26:26.306Z,62.70
2022-10-29T16:28:54.190Z,54.58
2022-10-29T16:31:28.570Z,43.38
2022-10-29T16:34:03.062Z,33.45
2022-10-29T16:36:30.961Z,27.85
2022-10-29T16:38:58.824Z,32.47
2022-10-29T16:41:28.618Z,37.90
2022-10-29T16:43:56.387Z,36.17
2022-10-29T16:46:24.150Z,36.75
2022-10-29T16:48:51.959Z,40.83
2022-10-29T16:51:19.812Z,32.35
2022-10-29T16:53:47.576Z,30.85
2022-10-29T16:56:15.404Z,35.15
2022-10-29T16:58:43.255Z,45.53
2022-10-29T17:01:11.329Z,39.58
2022-10-29T17:03:39.404Z,25.27
2022-10-29T17:06:10.203Z,32.08
2022-10-29T17:08:38.920Z,37.05
2022-10-29T17:11:10.256Z,38.53
2022-10-29T17:13:38.680Z,37.88
2022-10-29T17:16:14.786Z,32.70
2022-10-29T17:18:42.913Z,35.42
2022-10-29T17:21:10.700Z,37.95
2022-10-29T17:23:38.593Z,31.38
2022-10-29T17:26:06.505Z,27.85
2022-10-29T17:28:38.787Z,26.25
2022-10-29T17:31:11.555Z,27.33
2022-10-29T17:33:39.394Z,25.85
2022-10-29T17:36:13.667Z,28.42
2022-10-29T17:38:42.009Z,26.33
2022-10-29T17:41:09.886Z,25.15
2022-10-29T17:43:37.831Z,24.88
2022-10-29T17:46:06.333Z,28.35
2022-10-29T17:48:34.256Z,34.30
2022-10-29T17:51:03.590Z,32.50
2022-10-29T17:53:39.954Z,32.20
2022-10-29T17:56:09.009Z,64.05
2022-10-29T17:58:39.717Z,42.28
2022-10-29T18:01:11.132Z,30.90
2022-10-29T18:03:39.991Z,24.13
2022-10-29T18:06:11.878Z,22.02
2022-10-29T18:08:42.328Z,25.90
2022-10-29T18:11:18.885Z,22.10
2022-10-29T18:13:49.190Z,28.05
2022-10-29T18:16:20.599Z,34.75
2022-10-29T18:19:01.483Z,29.92
2022-10-29T18:21:31.529Z,25.08
2022-10-29T18:23:59.417Z,22.48
2022-10-29T18:26:34.109Z,23.92
2022-10-29T18:29:08.397Z,29.27
2022-10-29T18:31:37.698Z,26.48
2022-10-29T18:34:07.918Z,27.55
2022-10-29T18:36:36.140Z,23.73
2022-10-29T18:39:06.497Z,26.05
2022-10-29T18:44:03.048Z,20.80
2022-10-29T18:46:31.231Z,26.05
2022-10-29T18:49:01.183Z,31.02
2022-10-29T18:51:32.173Z,55.35
2022-10-29T18:54:01.359Z,70.32
2022-10-29T18:56:30.958Z,96.88
2022-10-29T18:59:00.421Z,50.92
2022-10-29T19:01:33.527Z,72.13
2022-10-29T19:04:05.057Z,47.88
2022-10-29T19:06:36.763Z,31.35
2022-10-29T19:09:08.402Z,28.92
2022-10-29T19:11:36.621Z,26.50
2022-10-29T19:14:10.862Z,22.63
2022-10-29T19:16:38.747Z,23.45
2022-10-29T19:19:11.556Z,26.90
2022-10-29T19:21:40.957Z,25.67
2022-10-29T19:24:13.811Z,22.15
2022-10-29T19:26:42.230Z,26.20
2022-10-29T19:29:10.645Z,45.65
2022-10-29T19:31:38.870Z,51.58
2022-10-29T19:34:09.065Z,33.63
2022-10-29T19:36:40.222Z,28.95
2022-10-29T19:39:08.353Z,40.25
2022-10-29T19:41:36.389Z,85.05
2022-10-29T19:44:04.611Z,39.78
2022-10-29T19:46:32.435Z,26.60
2022-10-29T19:49:00.840Z,44.53
2022-10-29T19:51:29.215Z,50.45
2022-10-29T19:53:58.764Z,32.10
2022-10-29T19:56:26.473Z,22.10
2022-10-29T19:58:54.362Z,22.77
2022-10-29T20:01:22.247Z,25.20
2022-10-29T20:03:50.530Z,22.42
2022-10-29T20:06:18.423Z,26.00
2022-10-29T20:08:46.285Z,28.13
2022-10-29T20:11:14.184Z,24.20
2022-10-29T20:13:42.555Z,27.65
2022-10-29T20:16:16.407Z,27.75
2022-10-29T20:18:44.532Z,23.30
2022-10-29T20:21:13.934Z,20.75
2022-10-29T20:23:41.892Z,21.35
2022-10-29T20:26:10.360Z,18.92
2022-10-29T20:28:38.193Z,18.42
2022-10-29T20:31:17.024Z,19.13
2022-10-29T20:33:53.673Z,23.92
2022-10-29T20:36:24.690Z,22.00
2022-10-29T20:38:53.825Z,23.25
2022-10-29T20:41:22.825Z,22.63
2022-10-29T20:43:56.701Z,24.90
2022-10-29T20:46:25.719Z,19.25
2022-10-29T20:48:53.744Z,17.98
2022-10-29T20:51:23.286Z,26.98
2022-10-29T20:53:53.139Z,39.60
2022-10-29T20:56:23.663Z,27.63
2022-10-29T20:58:51.578Z,27.60
2022-10-29T21:01:22.989Z,27.98
2022-10-29T21:03:51.303Z,27.98
2022-10-29T21:06:19.783Z,28.23
2022-10-29T21:08:50.321Z,25.08
2022-10-29T21:11:20.946Z,22.17
2022-10-29T21:13:49.634Z,15.75
2022-10-29T21:16:23.596Z,21.70
2022-10-29T21:18:55.614Z,22.95
2022-10-29T21:21:23.971Z,28.33
2022-10-29T21:23:52.078Z,24.05
2022-10-29T21:26:23.300Z,23.27
2022-10-29T21:28:52.994Z,24.08
2022-10-29T21:31:23.536Z,77.15
2022-10-29T21:33:53.341Z,36.47
2022-10-29T21:36:22.087Z,24.45
2022-10-29T21:38:50.227Z,21.52
2022-10-29T21:41:18.661Z,35.30
2022-10-29T21:43:46.724Z,22.30
2022-10-29T21:46:14.646Z,21.88
2022-10-29T21:48:42.387Z,39.78
2022-10-29T21:51:17.401Z,27.35
2022-10-29T21:53:45.257Z,23.73
2022-10-29T21:56:15.110Z,22.70
2022-10-29T21:58:43.636Z,23.98
2022-10-29T22:01:16.877Z,18.42
2022-10-29T22:03:46.877Z,18.70
2022-10-29T22:06:21.200Z,20.40
2022-10-29T22:08:58.426Z,19.88
2022-10-29T22:11:28.436Z,21.52
2022-10-29T22:13:56.263Z,23.05
2022-10-29T22:16:24.200Z,22.77
2022-10-29T22:18:53.227Z,27.02
2022-10-29T22:21:25.236Z,24.17
2022-10-29T22:23:58.194Z,58.83
2022-10-29T22:26:29.854Z,50.95
2022-10-29T22:28:57.742Z,59.97
2022-10-29T22:31:25.895Z,73.60
2022-10-29T22:33:53.868Z,53.38
2022-10-29T22:36:25.213Z,63.47
2022-10-29T22:38:59.227Z,42.95
2022-10-29T22:41:28.291Z,41.60
2022-10-29T22:44:00.107Z,32.17
2022-10-29T22:46:30.336Z,33.05
2022-10-29T22:48:58.915Z,29.23
2022-10-29T22:51:29.916Z,31.70
2022-10-29T22:53:58.501Z,28.88
2022-10-29T22:56:30.974Z,26.35
2022-10-29T22:58:58.839Z,22.27
2022-10-29T23:01:37.340Z,26.60
2022-10-29T23:04:08.157Z,25.17
2022-10-29T23:06:36.880Z,22.33
2022-10-29T23:09:04.813Z,22.38
2022-10-29T23:11:35.110Z,28.98
2022-10-29T23:14:03.163Z,23.17
2022-10-29T23:16:33.999Z,25.85
2022-10-29T23:19:04.646Z,26.73
2022-10-29T23:24:00.959Z,24.70
2022-10-29T23:26:29.377Z,34.28
2022-10-29T23:28:57.480Z,35.40
2022-10-29T23:31:28.010Z,25.05
2022-10-29T23:33:57.988Z,40.47
2022-10-29T23:36:27.949Z,25.88
2022-10-29T23:38:59.049Z,22.23
2022-10-29T23:41:29.386Z,19.05
2022-10-29T23:43:58.412Z,17.30
2022-10-29T23:46:26.295Z,15.70
2022-10-29T23:48:54.523Z,18.13
2022-10-29T23:51:22.390Z,23.88
2022-10-29T23:53:53.280Z,25.02
2022-10-29T23:56:24.664Z,20.67
2022-10-29T23:58:52.473Z,23.20
